Asan, Guam
Current Conditions -  °F | °C
As of 5:54 AM on Friday 24 Oct 2014 (Local Time) from PGUM Reporting Station
Clear Clear  
Wind Chill: 78°   Ceiling: Unl
Heat Index: 81°   Visibility: 10mi
Dew Point: 77°   Wind: 0mph
Humidity: 96%   Direction: NA
Pressure: 29.84"   Gusts: NA
Location:  13.47°N, 144.71°E
Report Text: PGUM 231954Z 00000KT 10SM CLR 26/25 A2984 RMK AO2 SLP098 T02560250 $
Loading
Personal Weather Stations






























Interactive Weather Map
Tropical Storm Tracking
New forecast layout! Learn more

10-Day Weather Forecast

Advertisements
Track Severe Weather on mobile